2E5 weather

Dell City Municipal Airport
Dell City, Texas, United States

Public forecast

Using degrees Fahrenheit for public forecast. Weather courtesy of forecast.io.

Closest aviation weather report (METAR) to Dell City Municipal Airport

Closest report is Cavern City Air Terminal, 52.7 nm (97.6 km) ENE. Retrieved 2020/01/28 21:53 UTC (49 minutes ago):

KCNM 282153Z AUTO 34010G22KT 10SM CLR 14/M04 A3005 RMK AO2 SLP151 T01441044

Closest aviation forecast (TAF) to Dell City Municipal Airport

Closest forecast is Cavern City Air Terminal, 52.7 nm (97.6 km) ENE. Retrieved 2020/01/28 18:22 UTC (4 hours ago):

TAF KCNM 281720Z 2818/2918 33020G28KT P6SM FEW080 FM282200 30012KT P6SM SKC FM290000 26006KT P6SM SKC